KSUX/SUX METAR and TAF weather

Enter ICAO airport designator
Station Type Date Time Source
KSUX METAR 2020/01/27 10:52 UTC NOAA

KSUX 271052Z AUTO 33012KT 5SM HZ OVC006 A2998 RMK AO2 UPB36E45 SLPNO P0000 $


Station Type Date Time Source
KSUX Decoded METAR 2020/01/27 10:52 UTC NOAA

SIOUX GATEWAY AIRPORT, IA, United States (KSUX) 42-23N 96-23W 338M
Jan 27, 2020 - 05:52 AM EST / 2020.01.27 1052 UTC
Wind: from the NNW (330 degrees) at 14 MPH (12 KT):0
Visibility: 5 mile(s):0
Sky conditions: overcast
Weather: haze
Precipitation last hour: A trace
Pressure (altimeter): 29.98 in. Hg (1015 hPa)
ob: KSUX 271052Z AUTO 33012KT 5SM HZ OVC006 A2998 RMK AO2 UPB36E45 SLPNO P0000
cycle: 11

Station Type Date Time Source
KSUX TAF 2020/01/27 10:04 UTC NOAA

TAF
AMD KSUX 271002Z 2710/2806 32011KT 5SM -FZDZ OVC006
FM271400 33008KT P6SM OVC004
FM271800 34006KT P6SM BKN008

Example: see airport list